This is the latest recevied weather packets stored in our database for station/object VE3GSI. If no packets are shown the sender has not sent any weather packets the latest 10 day(s).
| Time | Temp. | Humidity | Pressure | Rain* | Wind** | Luminosity | Snow |
|---|---|---|---|---|---|---|---|
| 1777893365 | 8.89° C | 85% | 1003.8 hPa | 0.25 mm | - | - | - |
| 1777886164 | 8.33° C | 85% | 1003.6 hPa | 0 mm | - | - | - |
| 1777883164 | 7.78° C | 89% | 1003.6 hPa | 0 mm | - | - | - |
| 1777879564 | 7.22° C | 90% | 1003.6 hPa | 0 mm | - | - | - |
| 1777875365 | 7.22° C | 95% | 1004.4 hPa | 0 mm | - | - | - |
| 1777869964 | 7.22° C | 91% | 1005.5 hPa | 0.25 mm | - | - | - |
| 1777867564 | 7.78° C | 88% | 1005.6 hPa | 0 mm | - | - | - |
| 1777865164 | 7.78° C | 82% | 1005.9 hPa | 0 mm | - | - | - |
| 1777862164 | 7.78° C | 78% | 1006.5 hPa | 0 mm | - | - | - |
| 1777860964 | 7.78° C | 76% | 1006.6 hPa | 0 mm | - | - | - |
| 1777853764 | 10° C | 62% | 1006.1 hPa | 0 mm | - | - | - |
| 1777852565 | 10° C | 62% | 1006 hPa | 0 mm | - | - | - |
| 1777851364 | 10.56° C | 62% | 1006 hPa | 0 mm | - | - | - |
| 1777848364 | 11.67° C | 56% | 1006.3 hPa | 0 mm | - | - | - |
| 1777847165 | 12.22° C | 51% | 1006.5 hPa | 0 mm | - | - | - |
| 1777845365 | 13.33° C | 40% | 1006.2 hPa | 0 mm | - | - | - |
| 1777842965 | 13.89° C | 38% | 1006.1 hPa | 0 mm | - | - | - |
| 1777839365 | 13.33° C | 43% | 1006.7 hPa | 0 mm | - | - | - |
| 1777838165 | 13.89° C | 43% | 1006.9 hPa | 0 mm | - | - | - |
| 1777836365 | 13.33° C | 43% | 1007.3 hPa | 0 mm | - | - | - |
| 1777835165 | 13.89° C | 45% | 1007.3 hPa | 0 mm | - | - | - |
| 1777826165 | 12.78° C | 35% | 1009 hPa | 0 mm | - | - | - |
| 1777825565 | 12.22° C | 36% | 1009.2 hPa | 0 mm | - | - | - |
| 1777824965 | 12.78° C | 38% | 1009.2 hPa | 0 mm | - | - | - |
| 1777824365 | 12.22° C | 37% | 1009.5 hPa | 0 mm | - | - | - |
* Rain latest hour (hover to see other rain measurements)
** Current wind speed in m/s (hover to see current wind gust speed)